Time;durP1;ratioP1;P1;durP2;ratioP2;P2;SDS_P1;SDS_P2;PMS_P1;PMS_P2;Temp;Humidity;BMP_temperature;BMP_pressure;BME280_temperature;BME280_humidity;BME280_pressure;Samples;Min_cycle;Max_cycle;Signal;HPM_P1;HPM_P2
2022/11/30 00:00:40;;;;;;;48.80;18.67;;;;;;;;;;5062909;28;20227;-81
2022/11/30 00:03:08;;;;;;;56.37;21.87;;;;;;;;;;5054556;28;20288;-80
2022/11/30 00:05:36;;;;;;;47.73;18.97;;;;;;;;;;5051921;28;20310;-80
2022/11/30 00:08:03;;;;;;;48.27;18.27;;;;;;;;;;5058880;28;20309;-80
2022/11/30 00:10:31;;;;;;;45.30;18.60;;;;;;;;;;5069483;28;20646;-80
2022/11/30 00:12:58;;;;;;;44.33;18.00;;;;;;;;;;5052119;28;20687;-80
2022/11/30 00:15:25;;;;;;;43.07;17.07;;;;;;;;;;5064244;28;20223;-80
2022/11/30 00:17:56;;;;;;;40.63;16.07;;;;;;;;;;5068350;28;20230;-80
2022/11/30 00:20:23;;;;;;;37.90;16.07;;;;;;;;;;5069682;28;20241;-80
2022/11/30 00:22:52;;;;;;;33.57;15.57;;;;;;;;;;5072355;28;20333;-80
2022/11/30 00:25:19;;;;;;;31.47;13.97;;;;;;;;;;5071945;28;20322;-80
2022/11/30 00:27:46;;;;;;;29.83;13.70;;;;;;;;;;5071750;28;20210;-80
2022/11/30 00:30:14;;;;;;;35.57;14.47;;;;;;;;;;5071997;28;20250;-79
2022/11/30 00:32:41;;;;;;;31.37;13.50;;;;;;;;;;5060065;28;20239;-80
2022/11/30 00:35:09;;;;;;;30.37;13.57;;;;;;;;;;5051961;28;20683;-80
2022/11/30 00:37:36;;;;;;;31.00;13.67;;;;;;;;;;5056046;28;20300;-80
2022/11/30 00:40:05;;;;;;;29.73;14.00;;;;;;;;;;5051600;28;20717;-80
2022/11/30 00:42:33;;;;;;;26.77;13.00;;;;;;;;;;5063936;28;20241;-80
2022/11/30 00:45:00;;;;;;;25.70;13.07;;;;;;;;;;5071965;28;20230;-80
2022/11/30 00:47:27;;;;;;;29.30;13.70;;;;;;;;;;5063757;28;20286;-80
2022/11/30 00:49:54;;;;;;;26.30;12.00;;;;;;;;;;5051862;28;20292;-80
2022/11/30 00:52:21;;;;;;;25.97;12.40;;;;;;;;;;5052870;28;20247;-80
2022/11/30 00:54:48;;;;;;;27.20;13.20;;;;;;;;;;5071529;28;20298;-80
2022/11/30 00:57:17;;;;;;;22.27;11.77;;;;;;;;;;5071342;28;20285;-81
2022/11/30 00:59:44;;;;;;;25.97;12.37;;;;;;;;;;5067170;28;20195;-80
2022/11/30 01:02:12;;;;;;;21.77;12.10;;;;;;;;;;5069259;28;20237;-80
2022/11/30 01:04:39;;;;;;;24.43;12.30;;;;;;;;;;5060206;28;20282;-80
2022/11/30 01:07:06;;;;;;;24.77;12.37;;;;;;;;;;5061420;28;20257;-81
2022/11/30 01:09:33;;;;;;;23.67;12.50;;;;;;;;;;5064513;28;20738;-80
2022/11/30 01:12:00;;;;;;;23.03;12.47;;;;;;;;;;5056494;28;20234;-80
2022/11/30 01:14:29;;;;;;;21.97;12.20;;;;;;;;;;5068307;28;20234;-80
2022/11/30 01:16:56;;;;;;;22.93;12.30;;;;;;;;;;5074790;28;20629;-80
2022/11/30 01:19:24;;;;;;;22.57;11.80;;;;;;;;;;5058801;28;20265;-81
2022/11/30 01:21:51;;;;;;;23.07;11.30;;;;;;;;;;5054732;28;20227;-80
2022/11/30 01:24:19;;;;;;;25.17;11.60;;;;;;;;;;5055328;28;20287;-80
2022/11/30 01:26:46;;;;;;;21.13;11.50;;;;;;;;;;5057249;28;20331;-80
2022/11/30 01:29:13;;;;;;;20.77;11.67;;;;;;;;;;5071206;28;20245;-80
2022/11/30 01:31:42;;;;;;;19.40;11.03;;;;;;;;;;5055149;28;20238;-80
2022/11/30 01:34:09;;;;;;;21.47;11.73;;;;;;;;;;5054755;28;20238;-80
2022/11/30 01:36:37;;;;;;;19.37;11.10;;;;;;;;;;5054453;28;20204;-80
2022/11/30 01:39:08;;;;;;;26.50;14.60;;;;;;;;;;5054686;28;20686;-81
2022/11/30 01:41:35;;;;;;;19.83;11.67;;;;;;;;;;5054730;28;20239;-81
2022/11/30 01:44:17;;;;;;;20.47;11.07;;;;;;;;;;5054462;28;20290;-80
2022/11/30 01:46:48;;;;;;;22.07;11.20;;;;;;;;;;5056197;28;20231;-81
2022/11/30 01:49:17;;;;;;;20.70;10.90;;;;;;;;;;5054186;28;20208;-80
2022/11/30 01:51:45;;;;;;;21.43;11.60;;;;;;;;;;5064177;28;20318;-81
2022/11/30 01:54:13;;;;;;;19.30;10.40;;;;;;;;;;5064198;28;20276;-81
2022/11/30 01:56:42;;;;;;;22.60;11.37;;;;;;;;;;5071244;28;20302;-80
2022/11/30 01:59:10;;;;;;;19.13;11.10;;;;;;;;;;5054348;28;20231;-81
2022/11/30 02:01:37;;;;;;;18.63;11.30;;;;;;;;;;5059709;28;20286;-81
2022/11/30 02:04:08;;;;;;;19.70;11.33;;;;;;;;;;5057745;28;20222;-80
2022/11/30 02:06:35;;;;;;;23.43;10.67;;;;;;;;;;5073476;28;20222;-81
2022/11/30 02:09:03;;;;;;;21.13;11.07;;;;;;;;;;5074192;28;20702;-80
2022/11/30 02:11:30;;;;;;;23.20;11.77;;;;;;;;;;5072514;28;20639;-80
2022/11/30 02:14:02;;;;;;;22.00;10.63;;;;;;;;;;5072569;28;20196;-80
2022/11/30 02:16:34;;;;;;;24.87;11.40;;;;;;;;;;5063575;28;20231;-80
2022/11/30 02:19:11;;;;;;;19.03;10.77;;;;;;;;;;5062821;28;20243;-80
2022/11/30 02:21:42;;;;;;;20.80;10.57;;;;;;;;;;5059823;28;20230;-80
2022/11/30 02:24:28;;;;;;;20.57;10.57;;;;;;;;;;5073926;28;20290;-81
2022/11/30 02:27:00;;;;;;;20.00;10.53;;;;;;;;;;5070157;28;20317;-81
2022/11/30 02:29:30;;;;;;;23.17;11.70;;;;;;;;;;5053425;28;20754;-80
2022/11/30 02:32:01;;;;;;;63.20;32.87;;;;;;;;;;5053519;28;20239;-81
2022/11/30 02:34:31;;;;;;;109.03;52.37;;;;;;;;;;5066161;28;20657;-80
2022/11/30 02:36:59;;;;;;;79.07;41.77;;;;;;;;;;5053702;28;20226;-81
2022/11/30 02:39:27;;;;;;;48.53;27.67;;;;;;;;;;5055893;28;20252;-81
2022/11/30 02:41:54;;;;;;;28.40;15.07;;;;;;;;;;5069077;28;20281;-80
2022/11/30 02:44:22;;;;;;;28.13;14.47;;;;;;;;;;5068071;28;20199;-81
2022/11/30 02:46:56;;;;;;;32.63;17.47;;;;;;;;;;5053379;28;20256;-79
2022/11/30 02:49:28;;;;;;;34.47;17.33;;;;;;;;;;5063564;28;20642;-79
2022/11/30 02:51:57;;;;;;;38.10;17.53;;;;;;;;;;5073195;28;20238;-79
2022/11/30 02:54:24;;;;;;;45.67;21.53;;;;;;;;;;5063990;28;20233;-79
2022/11/30 02:56:52;;;;;;;40.67;21.80;;;;;;;;;;5055576;28;20231;-79
2022/11/30 02:59:19;;;;;;;42.63;21.53;;;;;;;;;;5055027;28;20199;-79
2022/11/30 03:01:46;;;;;;;55.53;20.17;;;;;;;;;;5061315;28;20287;-79
2022/11/30 03:04:15;;;;;;;52.40;19.87;;;;;;;;;;5062934;28;20278;-79
2022/11/30 03:06:42;;;;;;;52.40;18.53;;;;;;;;;;5066687;28;20251;-79
2022/11/30 03:09:09;;;;;;;56.90;23.23;;;;;;;;;;5064042;28;20203;-79
2022/11/30 03:11:36;;;;;;;65.60;25.13;;;;;;;;;;5068215;28;20582;-78
2022/11/30 03:14:04;;;;;;;65.60;25.10;;;;;;;;;;5055218;28;20283;-79
2022/11/30 03:16:31;;;;;;;77.50;27.43;;;;;;;;;;5053046;28;20234;-79
2022/11/30 03:18:58;;;;;;;84.53;27.03;;;;;;;;;;5065014;28;20251;-78
2022/11/30 03:21:27;;;;;;;115.50;26.40;;;;;;;;;;5072273;28;20274;-81
2022/11/30 03:23:54;;;;;;;93.83;25.43;;;;;;;;;;5071625;28;20195;-81
2022/11/30 03:26:21;;;;;;;197.50;26.30;;;;;;;;;;5071790;28;20313;-78
2022/11/30 03:28:48;;;;;;;142.63;24.43;;;;;;;;;;5069309;28;20702;-80
2022/11/30 03:31:16;;;;;;;150.73;24.20;;;;;;;;;;5052476;28;20247;-79
2022/11/30 03:33:43;;;;;;;136.80;20.60;;;;;;;;;;5052288;28;20289;-79
2022/11/30 03:36:11;;;;;;;180.37;21.40;;;;;;;;;;5065044;28;20215;-80
2022/11/30 03:38:40;;;;;;;141.93;18.83;;;;;;;;;;5052785;28;20288;-80
2022/11/30 03:41:08;;;;;;;125.83;16.63;;;;;;;;;;5052744;28;20675;-80
2022/11/30 03:43:36;;;;;;;104.23;17.27;;;;;;;;;;5052429;28;20236;-80
2022/11/30 03:46:03;;;;;;;62.10;15.90;;;;;;;;;;5052476;28;20642;-80
2022/11/30 03:48:30;;;;;;;90.47;15.70;;;;;;;;;;5052119;28;20245;-80
2022/11/30 03:50:58;;;;;;;109.90;17.87;;;;;;;;;;5062364;28;20281;-80
2022/11/30 03:53:26;;;;;;;81.20;21.70;;;;;;;;;;5072516;28;20233;-79
2022/11/30 03:55:55;;;;;;;59.13;22.63;;;;;;;;;;5062128;28;20227;-80
2022/11/30 03:58:23;;;;;;;140.23;19.13;;;;;;;;;;5061370;28;20231;-80
2022/11/30 04:00:51;;;;;;;49.20;16.90;;;;;;;;;;5052168;28;20622;-80
2022/11/30 04:03:18;;;;;;;43.57;19.03;;;;;;;;;;5052143;28;20199;-80
2022/11/30 04:05:47;;;;;;;55.93;17.17;;;;;;;;;;5057574;28;20261;-80
2022/11/30 04:08:14;;;;;;;37.77;15.50;;;;;;;;;;5057175;28;20269;-80
2022/11/30 04:10:41;;;;;;;41.40;14.83;;;;;;;;;;5051671;28;20230;-79
2022/11/30 04:13:10;;;;;;;41.07;14.57;;;;;;;;;;5054040;28;20657;-80
2022/11/30 04:15:37;;;;;;;35.60;13.73;;;;;;;;;;5060865;28;20294;-80
2022/11/30 04:18:05;;;;;;;38.37;17.50;;;;;;;;;;5052266;28;20668;-80
2022/11/30 04:20:32;;;;;;;32.97;17.50;;;;;;;;;;5055283;28;20303;-80
2022/11/30 04:22:59;;;;;;;82.40;18.40;;;;;;;;;;5069930;28;20233;-80
2022/11/30 04:25:26;;;;;;;36.63;16.80;;;;;;;;;;5071995;28;20285;-80
2022/11/30 04:27:53;;;;;;;37.20;17.60;;;;;;;;;;5072025;28;20298;-79
2022/11/30 04:30:22;;;;;;;35.70;16.53;;;;;;;;;;5056903;28;20306;-80
2022/11/30 04:32:49;;;;;;;30.60;16.17;;;;;;;;;;5069178;28;20309;-81
2022/11/30 04:35:16;;;;;;;51.67;16.37;;;;;;;;;;5071582;28;20231;-81
2022/11/30 04:37:43;;;;;;;33.40;15.50;;;;;;;;;;5072188;28;20682;-81
2022/11/30 04:40:11;;;;;;;35.80;17.37;;;;;;;;;;5053795;28;20235;-80
2022/11/30 04:42:38;;;;;;;33.07;16.97;;;;;;;;;;5052515;28;20286;-80
2022/11/30 04:45:06;;;;;;;32.23;16.53;;;;;;;;;;5053534;28;20282;-80
2022/11/30 04:47:34;;;;;;;26.47;14.27;;;;;;;;;;5056144;28;20311;-80
2022/11/30 04:50:02;;;;;;;33.27;16.30;;;;;;;;;;5055431;28;20767;-80
2022/11/30 04:52:29;;;;;;;31.77;15.53;;;;;;;;;;5072608;28;20286;-81
2022/11/30 04:54:56;;;;;;;28.83;15.07;;;;;;;;;;5075950;28;20238;-80
2022/11/30 04:57:24;;;;;;;29.93;15.40;;;;;;;;;;5075320;28;20201;-80
2022/11/30 04:59:51;;;;;;;29.40;15.50;;;;;;;;;;5075384;28;20576;-80
2022/11/30 05:02:19;;;;;;;30.20;14.63;;;;;;;;;;5075311;28;20245;-80
2022/11/30 05:04:48;;;;;;;30.43;14.77;;;;;;;;;;5075434;28;20238;-80
2022/11/30 05:07:15;;;;;;;28.37;13.90;;;;;;;;;;5075377;28;20321;-81
2022/11/30 05:09:42;;;;;;;50.13;13.83;;;;;;;;;;5075660;28;20241;-81
2022/11/30 05:12:09;;;;;;;158.73;64.37;;;;;;;;;;5074542;28;20195;-81
2022/11/30 05:14:37;;;;;;;111.80;58.13;;;;;;;;;;5074942;28;20286;-80
2022/11/30 05:17:04;;;;;;;55.87;33.03;;;;;;;;;;5075460;28;20709;-80
2022/11/30 05:19:32;;;;;;;43.33;24.87;;;;;;;;;;5073992;28;20350;-80
2022/11/30 05:22:00;;;;;;;41.80;23.53;;;;;;;;;;5063054;28;20243;-81
2022/11/30 05:24:27;;;;;;;32.00;18.37;;;;;;;;;;5054969;28;20265;-80
2022/11/30 05:26:55;;;;;;;26.47;14.63;;;;;;;;;;5056060;28;20662;-81
2022/11/30 05:29:22;;;;;;;24.50;13.73;;;;;;;;;;5055841;28;20259;-80
2022/11/30 05:31:49;;;;;;;31.90;18.90;;;;;;;;;;5054508;28;20238;-81
2022/11/30 05:34:16;;;;;;;32.07;19.57;;;;;;;;;;5067132;28;20743;-81
2022/11/30 05:36:44;;;;;;;31.37;17.80;;;;;;;;;;5054814;28;20370;-81
2022/11/30 05:39:12;;;;;;;24.17;13.90;;;;;;;;;;5073194;28;20287;-81
2022/11/30 05:41:39;;;;;;;26.10;14.00;;;;;;;;;;5074177;28;20286;-81
2022/11/30 05:44:07;;;;;;;40.87;24.37;;;;;;;;;;5070489;28;20223;-80
2022/11/30 05:46:34;;;;;;;33.13;19.73;;;;;;;;;;5058670;28;20302;-80
2022/11/30 05:49:01;;;;;;;29.60;17.13;;;;;;;;;;5064701;28;20705;-80
2022/11/30 05:51:28;;;;;;;27.70;15.20;;;;;;;;;;5067884;28;20338;-81
2022/11/30 05:53:55;;;;;;;28.03;15.30;;;;;;;;;;5062515;28;20291;-81
2022/11/30 05:56:24;;;;;;;32.23;17.57;;;;;;;;;;5062149;28;20280;-81
2022/11/30 05:58:51;;;;;;;26.47;15.40;;;;;;;;;;5069753;28;20227;-81
2022/11/30 06:01:19;;;;;;;28.17;17.23;;;;;;;;;;5066934;28;20291;-81
2022/11/30 06:03:47;;;;;;;27.03;16.80;;;;;;;;;;5062330;28;20214;-81
2022/11/30 06:06:14;;;;;;;25.53;15.13;;;;;;;;;;5054583;28;20239;-80
2022/11/30 06:08:41;;;;;;;26.53;14.07;;;;;;;;;;5062225;28;20318;-81
2022/11/30 06:11:09;;;;;;;24.70;14.50;;;;;;;;;;5061915;28;20291;-80
2022/11/30 06:13:37;;;;;;;25.73;13.77;;;;;;;;;;5059303;28;20230;-80
2022/11/30 06:16:05;;;;;;;21.90;12.13;;;;;;;;;;5063808;28;20227;-80
2022/11/30 06:18:35;;;;;;;19.80;11.70;;;;;;;;;;5067105;28;20292;-80
2022/11/30 06:21:03;;;;;;;21.93;12.87;;;;;;;;;;5062090;28;20231;-81
2022/11/30 06:23:31;;;;;;;34.13;20.87;;;;;;;;;;5064599;28;20249;-80
2022/11/30 06:25:58;;;;;;;26.27;15.20;;;;;;;;;;5062092;28;20213;-80
2022/11/30 06:28:25;;;;;;;23.53;12.83;;;;;;;;;;5062657;28;20250;-79
2022/11/30 06:30:54;;;;;;;23.00;13.10;;;;;;;;;;5055690;28;20291;-79
2022/11/30 06:33:24;;;;;;;35.90;19.97;;;;;;;;;;5053515;28;20228;-79
2022/11/30 06:35:52;;;;;;;69.37;35.47;;;;;;;;;;5069243;28;20195;-78
2022/11/30 06:38:19;;;;;;;35.70;22.83;;;;;;;;;;5065074;28;20241;-79
2022/11/30 06:40:46;;;;;;;28.27;19.47;;;;;;;;;;5053434;28;20891;-80
2022/11/30 06:43:13;;;;;;;26.97;17.33;;;;;;;;;;5060425;28;20294;-77
2022/11/30 06:45:43;;;;;;;29.77;18.33;;;;;;;;;;5073693;28;20293;-79
2022/11/30 06:48:12;;;;;;;16.50;11.67;;;;;;;;;;5070951;28;20301;-80
2022/11/30 06:50:39;;;;;;;17.17;11.03;;;;;;;;;;5071509;28;20527;-80
2022/11/30 06:53:06;;;;;;;55.63;39.00;;;;;;;;;;5064938;28;20206;-80
2022/11/30 06:55:37;;;;;;;16.20;11.90;;;;;;;;;;5072488;28;20253;-79
2022/11/30 06:58:07;;;;;;;16.47;10.40;;;;;;;;;;5073215;28;20195;-79
2022/11/30 07:00:35;;;;;;;19.30;12.33;;;;;;;;;;5065389;28;20249;-79
2022/11/30 07:03:02;;;;;;;14.07;8.83;;;;;;;;;;5058180;28;20761;-79
2022/11/30 07:05:31;;;;;;;13.63;9.33;;;;;;;;;;5053300;28;20302;-79
2022/11/30 07:07:58;;;;;;;13.93;9.40;;;;;;;;;;5055288;28;20318;-79
2022/11/30 07:10:25;;;;;;;15.10;9.50;;;;;;;;;;5058672;28;20228;-80
2022/11/30 07:12:53;;;;;;;22.40;12.63;;;;;;;;;;5053107;28;20309;-79
2022/11/30 07:15:20;;;;;;;19.10;13.13;;;;;;;;;;5063726;28;20203;-81
2022/11/30 07:17:47;;;;;;;16.37;11.87;;;;;;;;;;5072886;28;20203;-78
2022/11/30 07:20:14;;;;;;;16.03;9.43;;;;;;;;;;5067972;28;20708;-80
2022/11/30 07:22:43;;;;;;;15.37;10.37;;;;;;;;;;5045804;28;20235;-80
2022/11/30 07:27:56;;;;;;;16.80;10.87;;;;;;;;;;5048768;28;20308;-80
2022/11/30 07:30:23;;;;;;;14.30;10.13;;;;;;;;;;5048692;28;20306;-80
2022/11/30 07:32:50;;;;;;;14.70;8.93;;;;;;;;;;5049264;28;20555;-80
2022/11/30 07:35:17;;;;;;;14.10;8.73;;;;;;;;;;5048755;28;20283;-79
2022/11/30 07:37:46;;;;;;;12.20;8.17;;;;;;;;;;5049531;28;20281;-83
2022/11/30 07:40:13;;;;;;;14.27;9.10;;;;;;;;;;5048793;28;20290;-83
2022/11/30 07:42:41;;;;;;;16.73;9.30;;;;;;;;;;5051319;28;20293;-83
2022/11/30 07:45:09;;;;;;;13.37;8.67;;;;;;;;;;5049822;28;20290;-84
2022/11/30 07:47:36;;;;;;;14.10;8.60;;;;;;;;;;5048036;28;20326;-84
2022/11/30 07:50:03;;;;;;;11.43;8.53;;;;;;;;;;5051381;28;20219;-84
2022/11/30 07:52:31;;;;;;;14.20;8.90;;;;;;;;;;5050359;28;20216;-84
2022/11/30 07:54:59;;;;;;;14.83;9.27;;;;;;;;;;5051369;28;20615;-85
2022/11/30 07:57:27;;;;;;;14.30;9.10;;;;;;;;;;5051679;28;20250;-83
2022/11/30 07:59:54;;;;;;;15.47;10.00;;;;;;;;;;5054202;28;20696;-85
2022/11/30 08:02:22;;;;;;;18.20;10.60;;;;;;;;;;5050647;28;20195;-85
2022/11/30 08:04:49;;;;;;;16.53;10.20;;;;;;;;;;5049428;28;20215;-85
2022/11/30 08:07:16;;;;;;;14.87;10.23;;;;;;;;;;5053736;28;20226;-80
2022/11/30 08:09:44;;;;;;;19.77;11.20;;;;;;;;;;5053401;28;20341;-80
2022/11/30 08:12:13;;;;;;;16.53;11.47;;;;;;;;;;5049320;28;20279;-80
2022/11/30 08:14:41;;;;;;;18.70;10.83;;;;;;;;;;5048565;28;20234;-80
2022/11/30 08:17:09;;;;;;;16.57;11.27;;;;;;;;;;5049453;28;20243;-81
2022/11/30 08:19:36;;;;;;;17.50;11.20;;;;;;;;;;5048613;28;20292;-80
2022/11/30 08:22:04;;;;;;;14.40;10.93;;;;;;;;;;5053227;28;20589;-80
2022/11/30 08:24:31;;;;;;;18.73;10.87;;;;;;;;;;5056702;28;20629;-80
2022/11/30 08:26:58;;;;;;;23.13;17.20;;;;;;;;;;5056056;28;20219;-80
2022/11/30 08:29:27;;;;;;;18.87;12.87;;;;;;;;;;5059531;28;20246;-80
2022/11/30 08:31:54;;;;;;;19.80;14.50;;;;;;;;;;5076156;28;20248;-80
2022/11/30 08:34:22;;;;;;;17.57;13.40;;;;;;;;;;5076746;28;20210;-80
2022/11/30 08:36:50;;;;;;;17.23;11.20;;;;;;;;;;5076603;28;20303;-80
2022/11/30 08:39:18;;;;;;;15.00;10.53;;;;;;;;;;5070135;28;20337;-86
2022/11/30 08:41:45;;;;;;;16.93;10.47;;;;;;;;;;5072492;28;20636;-85
2022/11/30 08:44:12;;;;;;;18.17;9.93;;;;;;;;;;5064698;28;20282;-86
2022/11/30 08:46:42;;;;;;;16.97;10.40;;;;;;;;;;5056187;28;20739;-86
2022/11/30 08:49:10;;;;;;;18.33;11.03;;;;;;;;;;5062797;28;20274;-87
2022/11/30 08:51:37;;;;;;;17.17;10.53;;;;;;;;;;5036348;28;20213;-85
2022/11/30 08:54:04;;;;;;;15.27;10.60;;;;;;;;;;5073564;28;20203;-85
2022/11/30 08:56:31;;;;;;;17.73;12.37;;;;;;;;;;5065289;28;20327;-85
2022/11/30 08:58:59;;;;;;;20.97;15.07;;;;;;;;;;5059387;28;20645;-84
2022/11/30 09:01:27;;;;;;;16.43;12.80;;;;;;;;;;5044570;28;20265;-84
2022/11/30 09:03:56;;;;;;;16.83;10.90;;;;;;;;;;5051942;28;20228;-84
2022/11/30 09:06:24;;;;;;;13.60;9.97;;;;;;;;;;5053107;28;20204;-84
2022/11/30 09:08:52;;;;;;;14.57;9.53;;;;;;;;;;5052629;28;20311;-86
2022/11/30 09:11:20;;;;;;;17.10;11.47;;;;;;;;;;5051994;28;20212;-85
2022/11/30 09:13:49;;;;;;;18.90;11.07;;;;;;;;;;5053169;28;20291;-85
2022/11/30 09:16:16;;;;;;;14.23;9.60;;;;;;;;;;5054744;28;20235;-84
2022/11/30 09:18:44;;;;;;;13.83;10.13;;;;;;;;;;5053877;28;20228;-85
2022/11/30 09:21:13;;;;;;;16.33;9.57;;;;;;;;;;5052918;28;20285;-85
2022/11/30 09:23:41;;;;;;;15.10;9.77;;;;;;;;;;5054936;28;20268;-85
2022/11/30 09:26:10;;;;;;;13.80;9.13;;;;;;;;;;5055300;28;20208;-84
2022/11/30 09:28:37;;;;;;;14.07;8.70;;;;;;;;;;5055036;28;20228;-85
2022/11/30 09:31:05;;;;;;;17.33;13.30;;;;;;;;;;5050980;28;20222;-80
2022/11/30 09:33:33;;;;;;;13.30;8.03;;;;;;;;;;5052495;28;20698;-79
2022/11/30 09:36:01;;;;;;;14.23;8.30;;;;;;;;;;5052600;28;20278;-85
2022/11/30 09:38:30;;;;;;;15.20;9.60;;;;;;;;;;5052087;28;20227;-86
2022/11/30 09:40:58;;;;;;;12.90;8.10;;;;;;;;;;5050022;28;20270;-85
2022/11/30 09:43:31;;;;;;;17.83;14.17;;;;;;;;;;5050370;28;20295;-86
2022/11/30 09:46:00;;;;;;;11.50;7.73;;;;;;;;;;5055200;28;20223;-86
2022/11/30 09:48:43;;;;;;;14.07;8.43;;;;;;;;;;5057128;28;20305;-86
2022/11/30 09:51:13;;;;;;;11.07;8.17;;;;;;;;;;5054851;28;20208;-86
2022/11/30 09:53:43;;;;;;;11.33;7.63;;;;;;;;;;5048071;28;20597;-84
2022/11/30 09:56:24;;;;;;;11.40;8.07;;;;;;;;;;5051884;28;20625;-81
2022/11/30 09:58:54;;;;;;;11.77;8.00;;;;;;;;;;5054137;28;20278;-81
2022/11/30 10:01:21;;;;;;;11.27;7.40;;;;;;;;;;5052588;28;20298;-81
2022/11/30 10:03:49;;;;;;;35.77;29.83;;;;;;;;;;5049939;28;20615;-81
2022/11/30 10:06:19;;;;;;;15.23;8.63;;;;;;;;;;5051232;28;20683;-82
2022/11/30 10:08:54;;;;;;;18.37;14.57;;;;;;;;;;5050219;28;20274;-85
2022/11/30 10:11:42;;;;;;;12.87;8.30;;;;;;;;;;5051995;28;20199;-86
2022/11/30 10:14:25;;;;;;;11.87;8.03;;;;;;;;;;5051364;28;20253;-87
2022/11/30 10:16:58;;;;;;;10.50;7.90;;;;;;;;;;5054310;28;20282;-87
2022/11/30 10:19:34;;;;;;;10.27;8.10;;;;;;;;;;5055338;28;20183;-86
2022/11/30 10:22:08;;;;;;;11.00;7.30;;;;;;;;;;5051854;28;20200;-85
2022/11/30 10:24:42;;;;;;;10.70;7.43;;;;;;;;;;5051642;28;20265;-86
2022/11/30 10:27:15;;;;;;;11.80;8.10;;;;;;;;;;5050893;28;20227;-87
2022/11/30 10:29:43;;;;;;;11.57;8.10;;;;;;;;;;5049873;28;20707;-87
2022/11/30 10:32:13;;;;;;;12.67;9.93;;;;;;;;;;5053528;28;20235;-88
2022/11/30 10:34:42;;;;;;;15.37;11.40;;;;;;;;;;5056074;28;20258;-87
2022/11/30 10:37:13;;;;;;;14.53;9.60;;;;;;;;;;5054326;28;20240;-87
2022/11/30 10:39:47;;;;;;;13.43;10.23;;;;;;;;;;5052450;28;20239;-88
2022/11/30 10:42:19;;;;;;;14.63;10.30;;;;;;;;;;5045518;28;20214;-88
2022/11/30 10:44:52;;;;;;;13.60;10.40;;;;;;;;;;5054674;28;20287;-87
2022/11/30 10:47:21;;;;;;;19.47;13.67;;;;;;;;;;5048176;28;20277;-87
2022/11/30 10:49:50;;;;;;;15.30;10.90;;;;;;;;;;5053577;28;20290;-87
2022/11/30 10:52:19;;;;;;;26.73;17.77;;;;;;;;;;5053888;28;20235;-87
2022/11/30 10:54:49;;;;;;;18.20;12.03;;;;;;;;;;5054393;28;20253;-86
2022/11/30 10:57:16;;;;;;;21.27;14.43;;;;;;;;;;5051474;28;20204;-80
2022/11/30 10:59:47;;;;;;;15.60;10.70;;;;;;;;;;5054460;28;20196;-80
2022/11/30 11:02:29;;;;;;;12.30;9.47;;;;;;;;;;5049376;28;20199;-80
2022/11/30 11:05:08;;;;;;;14.23;9.87;;;;;;;;;;5051806;28;20687;-79
2022/11/30 11:07:42;;;;;;;12.57;8.97;;;;;;;;;;5053107;28;20310;-81
2022/11/30 11:10:13;;;;;;;12.23;9.07;;;;;;;;;;5060418;28;20285;-82
2022/11/30 11:12:46;;;;;;;12.20;9.43;;;;;;;;;;5066556;28;20248;-82
2022/11/30 11:15:18;;;;;;;15.30;11.67;;;;;;;;;;5066390;28;20250;-82
2022/11/30 11:17:45;;;;;;;15.30;10.70;;;;;;;;;;5070116;28;20226;-82
2022/11/30 11:20:27;;;;;;;15.00;12.57;;;;;;;;;;5061825;28;20227;-82
2022/11/30 11:22:54;;;;;;;15.40;10.40;;;;;;;;;;5055726;28;20616;-82
2022/11/30 11:25:24;;;;;;;15.70;10.63;;;;;;;;;;5053351;28;20200;-82
2022/11/30 11:27:52;;;;;;;17.80;11.70;;;;;;;;;;5052951;28;20739;-82
2022/11/30 11:30:28;;;;;;;15.47;10.03;;;;;;;;;;5067424;28;20310;-82
2022/11/30 11:32:59;;;;;;;12.53;10.00;;;;;;;;;;5072447;28;20225;-82
2022/11/30 11:35:33;;;;;;;13.77;9.80;;;;;;;;;;5072175;28;20282;-82
2022/11/30 11:38:00;;;;;;;15.03;10.20;;;;;;;;;;5066268;28;20667;-82
2022/11/30 11:40:29;;;;;;;14.87;10.37;;;;;;;;;;5053153;28;20257;-82
2022/11/30 11:42:57;;;;;;;11.77;9.00;;;;;;;;;;5052753;28;20208;-82
2022/11/30 11:45:26;;;;;;;15.10;9.67;;;;;;;;;;5052585;28;20231;-82
2022/11/30 11:47:58;;;;;;;12.10;9.13;;;;;;;;;;5062902;28;20191;-82
2022/11/30 11:50:27;;;;;;;13.03;9.27;;;;;;;;;;5061648;28;20203;-82
2022/11/30 11:53:07;;;;;;;12.43;9.57;;;;;;;;;;5072309;28;20285;-82
2022/11/30 11:55:36;;;;;;;12.50;8.97;;;;;;;;;;5071773;28;20658;-82
2022/11/30 11:58:04;;;;;;;13.20;8.87;;;;;;;;;;5063532;28;20550;-81
2022/11/30 12:00:31;;;;;;;14.57;11.63;;;;;;;;;;5052939;28;20237;-82
2022/11/30 12:03:00;;;;;;;13.43;10.53;;;;;;;;;;5059558;28;20219;-82
2022/11/30 12:05:30;;;;;;;11.63;8.23;;;;;;;;;;5065113;28;20218;-83
2022/11/30 12:08:00;;;;;;;10.33;7.93;;;;;;;;;;5055552;28;20314;-82
2022/11/30 12:10:30;;;;;;;11.83;8.27;;;;;;;;;;5060610;28;20291;-82
2022/11/30 12:12:58;;;;;;;9.67;7.67;;;;;;;;;;5052707;28;20207;-82
2022/11/30 12:15:29;;;;;;;10.47;8.33;;;;;;;;;;5057347;28;20191;-82
2022/11/30 12:18:01;;;;;;;12.13;8.10;;;;;;;;;;5069689;28;20238;-82
2022/11/30 12:20:32;;;;;;;9.23;7.73;;;;;;;;;;5071863;28;20242;-82
2022/11/30 12:23:26;;;;;;;13.40;10.13;;;;;;;;;;5052478;28;20672;-82
2022/11/30 12:25:58;;;;;;;9.83;8.43;;;;;;;;;;5042229;28;20290;-81
2022/11/30 12:28:31;;;;;;;11.53;8.63;;;;;;;;;;5032342;28;20307;-83
2022/11/30 12:31:09;;;;;;;11.20;8.47;;;;;;;;;;5067112;28;20256;-82
2022/11/30 12:33:42;;;;;;;13.10;9.87;;;;;;;;;;5059285;28;20223;-82
2022/11/30 12:36:15;;;;;;;12.93;8.60;;;;;;;;;;5054592;28;20675;-82
2022/11/30 12:38:45;;;;;;;13.43;9.20;;;;;;;;;;5057318;28;20705;-84
2022/11/30 12:41:20;;;;;;;12.77;10.17;;;;;;;;;;5070997;28;20235;-84
2022/11/30 12:43:52;;;;;;;11.70;9.03;;;;;;;;;;5039006;28;20233;-82
2022/11/30 12:46:21;;;;;;;12.00;9.17;;;;;;;;;;5061134;28;20204;-84
2022/11/30 12:48:53;;;;;;;12.73;9.57;;;;;;;;;;5070840;28;20223;-83
2022/11/30 12:51:25;;;;;;;10.97;8.87;;;;;;;;;;5055910;28;20208;-83
2022/11/30 12:53:56;;;;;;;11.40;9.20;;;;;;;;;;5051481;28;20227;-83
2022/11/30 12:56:30;;;;;;;12.53;9.13;;;;;;;;;;5057732;28;20196;-83
2022/11/30 12:59:03;;;;;;;12.90;8.80;;;;;;;;;;5059320;28;20249;-83
2022/11/30 13:01:40;;;;;;;12.83;9.57;;;;;;;;;;5052511;28;20204;-82
2022/11/30 13:04:10;;;;;;;13.70;8.70;;;;;;;;;;5051728;28;20253;-84
2022/11/30 13:06:39;;;;;;;12.83;9.47;;;;;;;;;;5056996;28;20199;-82
2022/11/30 13:09:12;;;;;;;12.00;9.03;;;;;;;;;;5071907;28;20750;-83
2022/11/30 13:11:40;;;;;;;13.30;8.90;;;;;;;;;;5064619;28;20643;-83
2022/11/30 13:14:21;;;;;;;14.60;9.90;;;;;;;;;;5069750;28;20264;-83
2022/11/30 13:17:02;;;;;;;14.90;9.93;;;;;;;;;;5073914;28;20203;-82
2022/11/30 13:19:44;;;;;;;15.23;10.10;;;;;;;;;;5070951;28;20574;-82
2022/11/30 13:22:15;;;;;;;13.20;9.43;;;;;;;;;;5068108;28;20196;-83
2022/11/30 13:24:44;;;;;;;13.90;9.10;;;;;;;;;;5065779;28;20246;-83
2022/11/30 13:27:15;;;;;;;12.67;9.40;;;;;;;;;;5067736;28;20235;-82
2022/11/30 13:30:07;;;;;;;11.93;9.63;;;;;;;;;;5070961;28;20916;-82
2022/11/30 13:32:36;;;;;;;13.90;9.50;;;;;;;;;;5056581;28;20200;-83
2022/11/30 13:35:33;;;;;;;12.00;10.00;;;;;;;;;;5068312;28;20671;-83
2022/11/30 13:38:03;;;;;;;16.90;11.87;;;;;;;;;;5055098;28;20208;-82
2022/11/30 13:40:30;;;;;;;14.43;12.13;;;;;;;;;;5047840;28;20203;-83
2022/11/30 13:42:58;;;;;;;15.17;12.27;;;;;;;;;;5070552;28;20562;-83
2022/11/30 13:45:31;;;;;;;14.37;11.50;;;;;;;;;;5055986;28;20207;-86
2022/11/30 13:48:00;;;;;;;14.17;11.60;;;;;;;;;;5054856;28;20261;-87
2022/11/30 13:50:35;;;;;;;13.17;10.77;;;;;;;;;;5065138;28;20223;-87
2022/11/30 13:53:33;;;;;;;14.17;11.17;;;;;;;;;;5068840;28;20191;-86
2022/11/30 13:56:05;;;;;;;15.53;10.57;;;;;;;;;;5073921;28;20192;-87
2022/11/30 13:58:33;;;;;;;14.00;10.80;;;;;;;;;;5058459;28;20199;-87
2022/11/30 14:01:15;;;;;;;9.17;8.07;;;;;;;;;;5067574;28;20226;-87
2022/11/30 14:03:44;;;;;;;9.37;7.63;;;;;;;;;;5054250;28;20203;-87
2022/11/30 14:06:26;;;;;;;10.17;7.90;;;;;;;;;;5055336;28;20227;-87
2022/11/30 14:08:53;;;;;;;9.23;7.13;;;;;;;;;;5042483;28;20290;-87
2022/11/30 14:11:37;;;;;;;16.83;10.37;;;;;;;;;;5074063;28;20222;-86
2022/11/30 14:14:22;;;;;;;39.40;22.67;;;;;;;;;;5046208;28;20670;-87
2022/11/30 14:16:50;;;;;;;10.47;7.23;;;;;;;;;;5047760;28;20223;-86
2022/11/30 14:19:19;;;;;;;29.17;20.07;;;;;;;;;;5074779;28;20642;-87
2022/11/30 14:21:47;;;;;;;10.97;8.33;;;;;;;;;;5059935;28;20200;-86
2022/11/30 14:24:18;;;;;;;11.97;8.10;;;;;;;;;;5069085;28;20203;-86
2022/11/30 14:26:47;;;;;;;10.53;8.03;;;;;;;;;;5063092;28;20651;-83
2022/11/30 14:29:17;;;;;;;13.20;9.23;;;;;;;;;;5059358;28;20234;-83
2022/11/30 14:31:50;;;;;;;10.80;8.10;;;;;;;;;;5072506;28;20207;-83
2022/11/30 14:34:20;;;;;;;12.23;7.80;;;;;;;;;;5068473;28;20223;-83
2022/11/30 14:36:49;;;;;;;13.13;10.43;;;;;;;;;;5061972;28;20625;-83